sensor_id;sensor_type;location;lat;lon;timestamp;P1;P2;P0
23240;PMS7003;11789;53.482;9.862;2022-11-14T00:02:07;52.33;43.00;25.00
23240;PMS7003;11789;53.482;9.862;2022-11-14T00:04:33;57.67;46.00;25.33
23240;PMS7003;11789;53.482;9.862;2022-11-14T00:06:58;52.00;42.33;24.00
23240;PMS7003;11789;53.482;9.862;2022-11-14T00:09:27;53.00;43.33;25.00
23240;PMS7003;11789;53.482;9.862;2022-11-14T00:11:53;56.00;44.00;25.33
23240;PMS7003;11789;53.482;9.862;2022-11-14T00:14:19;58.00;47.00;24.00
23240;PMS7003;11789;53.482;9.862;2022-11-14T00:16:45;52.33;42.33;26.00
23240;PMS7003;11789;53.482;9.862;2022-11-14T00:19:10;54.00;44.67;26.00
23240;PMS7003;11789;53.482;9.862;2022-11-14T00:21:36;57.67;45.67;25.33
23240;PMS7003;11789;53.482;9.862;2022-11-14T00:24:02;57.33;45.67;24.00
23240;PMS7003;11789;53.482;9.862;2022-11-14T00:26:28;60.00;46.67;25.67
23240;PMS7003;11789;53.482;9.862;2022-11-14T00:28:54;59.67;47.00;25.33
23240;PMS7003;11789;53.482;9.862;2022-11-14T00:31:19;58.33;44.67;24.00
23240;PMS7003;11789;53.482;9.862;2022-11-14T00:33:45;57.00;45.00;24.67
23240;PMS7003;11789;53.482;9.862;2022-11-14T00:36:11;63.00;48.33;26.67
23240;PMS7003;11789;53.482;9.862;2022-11-14T00:38:36;58.33;45.00;25.00
23240;PMS7003;11789;53.482;9.862;2022-11-14T00:41:02;55.33;42.33;25.00
23240;PMS7003;11789;53.482;9.862;2022-11-14T00:43:27;59.00;46.00;25.00
23240;PMS7003;11789;53.482;9.862;2022-11-14T00:45:52;58.00;47.00;24.33
23240;PMS7003;11789;53.482;9.862;2022-11-14T00:48:18;56.67;43.67;26.33
23240;PMS7003;11789;53.482;9.862;2022-11-14T00:50:44;59.00;47.67;27.33
23240;PMS7003;11789;53.482;9.862;2022-11-14T00:53:09;57.33;47.67;25.00
23240;PMS7003;11789;53.482;9.862;2022-11-14T00:55:35;60.00;46.33;26.67
23240;PMS7003;11789;53.482;9.862;2022-11-14T00:58:00;54.33;44.67;22.67
23240;PMS7003;11789;53.482;9.862;2022-11-14T01:00:26;56.33;46.00;24.67
23240;PMS7003;11789;53.482;9.862;2022-11-14T01:02:51;55.33;42.67;24.33
23240;PMS7003;11789;53.482;9.862;2022-11-14T01:05:21;57.67;43.33;24.33
23240;PMS7003;11789;53.482;9.862;2022-11-14T01:07:47;61.00;48.33;26.67
23240;PMS7003;11789;53.482;9.862;2022-11-14T01:10:14;58.33;44.67;25.00
23240;PMS7003;11789;53.482;9.862;2022-11-14T01:12:40;57.67;46.33;27.33
23240;PMS7003;11789;53.482;9.862;2022-11-14T01:15:05;50.33;41.67;24.67
23240;PMS7003;11789;53.482;9.862;2022-11-14T01:17:31;60.33;48.33;26.67
23240;PMS7003;11789;53.482;9.862;2022-11-14T01:19:57;60.33;46.33;26.67
23240;PMS7003;11789;53.482;9.862;2022-11-14T01:22:22;59.33;45.33;26.00
23240;PMS7003;11789;53.482;9.862;2022-11-14T01:24:48;56.67;45.00;25.33
23240;PMS7003;11789;53.482;9.862;2022-11-14T01:27:13;59.33;47.00;27.00
23240;PMS7003;11789;53.482;9.862;2022-11-14T01:29:39;55.67;45.00;25.33
23240;PMS7003;11789;53.482;9.862;2022-11-14T01:32:04;53.67;46.00;25.00
23240;PMS7003;11789;53.482;9.862;2022-11-14T01:34:30;52.33;42.33;24.67
23240;PMS7003;11789;53.482;9.862;2022-11-14T01:36:56;58.00;45.33;25.00
23240;PMS7003;11789;53.482;9.862;2022-11-14T01:39:21;59.00;47.00;25.33
23240;PMS7003;11789;53.482;9.862;2022-11-14T01:41:47;56.33;45.33;25.33
23240;PMS7003;11789;53.482;9.862;2022-11-14T01:44:14;55.67;45.67;25.33
23240;PMS7003;11789;53.482;9.862;2022-11-14T01:46:42;56.00;47.67;27.00
23240;PMS7003;11789;53.482;9.862;2022-11-14T01:51:49;59.00;46.00;25.33
23240;PMS7003;11789;53.482;9.862;2022-11-14T01:54:24;56.33;45.67;25.33
23240;PMS7003;11789;53.482;9.862;2022-11-14T01:57:02;63.67;50.67;28.00
23240;PMS7003;11789;53.482;9.862;2022-11-14T01:59:32;62.00;48.33;25.67
23240;PMS7003;11789;53.482;9.862;2022-11-14T02:02:02;62.33;48.33;27.00
23240;PMS7003;11789;53.482;9.862;2022-11-14T02:04:41;61.00;47.00;26.00
23240;PMS7003;11789;53.482;9.862;2022-11-14T02:07:11;56.67;46.00;25.67
23240;PMS7003;11789;53.482;9.862;2022-11-14T02:09:38;55.67;46.00;27.00
23240;PMS7003;11789;53.482;9.862;2022-11-14T02:12:08;61.67;49.00;25.00
23240;PMS7003;11789;53.482;9.862;2022-11-14T02:14:37;63.00;49.33;27.00
23240;PMS7003;11789;53.482;9.862;2022-11-14T02:17:03;54.33;42.33;25.33
23240;PMS7003;11789;53.482;9.862;2022-11-14T02:19:43;63.67;47.33;26.00
23240;PMS7003;11789;53.482;9.862;2022-11-14T02:22:10;58.67;47.33;28.33
23240;PMS7003;11789;53.482;9.862;2022-11-14T02:24:35;55.33;43.00;23.67
23240;PMS7003;11789;53.482;9.862;2022-11-14T02:27:01;60.67;50.00;28.33
23240;PMS7003;11789;53.482;9.862;2022-11-14T02:29:30;56.67;47.00;26.67
23240;PMS7003;11789;53.482;9.862;2022-11-14T02:31:57;59.33;46.33;27.00
23240;PMS7003;11789;53.482;9.862;2022-11-14T02:34:22;59.00;48.67;26.00
23240;PMS7003;11789;53.482;9.862;2022-11-14T02:36:48;61.33;46.67;24.67
23240;PMS7003;11789;53.482;9.862;2022-11-14T02:39:13;64.33;49.33;28.33
23240;PMS7003;11789;53.482;9.862;2022-11-14T02:41:38;58.67;48.00;27.00
23240;PMS7003;11789;53.482;9.862;2022-11-14T02:44:04;58.33;46.33;27.00
23240;PMS7003;11789;53.482;9.862;2022-11-14T02:46:29;58.67;46.33;27.33
23240;PMS7003;11789;53.482;9.862;2022-11-14T02:48:55;61.33;48.00;28.00
23240;PMS7003;11789;53.482;9.862;2022-11-14T02:51:20;58.33;46.00;28.00
23240;PMS7003;11789;53.482;9.862;2022-11-14T02:53:46;62.67;49.00;28.00
23240;PMS7003;11789;53.482;9.862;2022-11-14T02:56:11;64.00;49.00;27.00
23240;PMS7003;11789;53.482;9.862;2022-11-14T02:58:36;60.67;49.00;27.00
23240;PMS7003;11789;53.482;9.862;2022-11-14T03:01:02;59.00;46.67;25.33
23240;PMS7003;11789;53.482;9.862;2022-11-14T03:03:27;60.67;49.67;29.00
23240;PMS7003;11789;53.482;9.862;2022-11-14T03:05:57;59.00;47.00;28.67
23240;PMS7003;11789;53.482;9.862;2022-11-14T03:08:24;52.33;44.67;27.00
23240;PMS7003;11789;53.482;9.862;2022-11-14T03:10:49;56.00;47.00;25.67
23240;PMS7003;11789;53.482;9.862;2022-11-14T03:13:14;59.00;48.00;27.00
23240;PMS7003;11789;53.482;9.862;2022-11-14T03:15:40;56.00;44.67;25.00
23240;PMS7003;11789;53.482;9.862;2022-11-14T03:18:05;59.00;47.00;27.00
23240;PMS7003;11789;53.482;9.862;2022-11-14T03:20:31;56.33;45.33;25.00
23240;PMS7003;11789;53.482;9.862;2022-11-14T03:22:56;47.67;37.33;17.67
23240;PMS7003;11789;53.482;9.862;2022-11-14T03:25:22;59.67;44.67;25.00
23240;PMS7003;11789;53.482;9.862;2022-11-14T03:27:47;56.33;46.67;27.00
23240;PMS7003;11789;53.482;9.862;2022-11-14T03:30:12;55.33;46.00;25.00
23240;PMS7003;11789;53.482;9.862;2022-11-14T03:32:38;57.00;46.00;26.00
23240;PMS7003;11789;53.482;9.862;2022-11-14T03:35:04;60.67;48.00;26.67
23240;PMS7003;11789;53.482;9.862;2022-11-14T03:37:31;63.67;49.00;27.67
23240;PMS7003;11789;53.482;9.862;2022-11-14T03:39:57;58.00;48.00;25.00
23240;PMS7003;11789;53.482;9.862;2022-11-14T03:42:22;58.00;47.33;27.00
23240;PMS7003;11789;53.482;9.862;2022-11-14T03:44:47;59.00;48.00;28.67
23240;PMS7003;11789;53.482;9.862;2022-11-14T03:47:13;62.33;49.33;27.00
23240;PMS7003;11789;53.482;9.862;2022-11-14T03:49:38;56.67;45.67;26.00
23240;PMS7003;11789;53.482;9.862;2022-11-14T03:52:04;60.33;50.67;27.33
23240;PMS7003;11789;53.482;9.862;2022-11-14T03:54:30;59.67;48.67;27.00
23240;PMS7003;11789;53.482;9.862;2022-11-14T03:56:55;60.67;49.00;26.00
23240;PMS7003;11789;53.482;9.862;2022-11-14T03:59:21;59.00;46.00;25.33
23240;PMS7003;11789;53.482;9.862;2022-11-14T04:01:46;67.00;51.33;29.00
23240;PMS7003;11789;53.482;9.862;2022-11-14T04:04:13;61.00;48.00;28.00
23240;PMS7003;11789;53.482;9.862;2022-11-14T04:06:38;59.67;49.00;28.67
23240;PMS7003;11789;53.482;9.862;2022-11-14T04:09:04;64.00;48.33;26.00
23240;PMS7003;11789;53.482;9.862;2022-11-14T04:11:30;59.00;48.00;27.00
23240;PMS7003;11789;53.482;9.862;2022-11-14T04:13:56;67.33;49.00;27.33
23240;PMS7003;11789;53.482;9.862;2022-11-14T04:16:21;63.33;45.67;25.00
23240;PMS7003;11789;53.482;9.862;2022-11-14T04:18:47;60.67;48.33;27.00
23240;PMS7003;11789;53.482;9.862;2022-11-14T04:21:12;64.33;49.33;27.00
23240;PMS7003;11789;53.482;9.862;2022-11-14T04:23:38;58.33;48.33;26.00
23240;PMS7003;11789;53.482;9.862;2022-11-14T04:26:03;61.33;48.67;29.00
23240;PMS7003;11789;53.482;9.862;2022-11-14T04:28:29;58.00;46.00;27.00
23240;PMS7003;11789;53.482;9.862;2022-11-14T04:30:54;61.00;46.33;27.00
23240;PMS7003;11789;53.482;9.862;2022-11-14T04:33:19;64.00;49.67;28.67
23240;PMS7003;11789;53.482;9.862;2022-11-14T04:35:45;63.67;50.67;27.67
23240;PMS7003;11789;53.482;9.862;2022-11-14T04:38:10;64.00;50.00;27.67
23240;PMS7003;11789;53.482;9.862;2022-11-14T04:40:36;59.00;46.67;27.33
23240;PMS7003;11789;53.482;9.862;2022-11-14T04:43:01;64.33;51.67;28.00
23240;PMS7003;11789;53.482;9.862;2022-11-14T04:45:27;61.00;48.00;28.00
23240;PMS7003;11789;53.482;9.862;2022-11-14T04:47:53;62.33;46.67;25.33
23240;PMS7003;11789;53.482;9.862;2022-11-14T04:50:18;66.67;50.00;27.00
23240;PMS7003;11789;53.482;9.862;2022-11-14T04:52:44;55.67;44.00;26.00
23240;PMS7003;11789;53.482;9.862;2022-11-14T04:55:09;53.67;45.33;27.33
23240;PMS7003;11789;53.482;9.862;2022-11-14T04:57:35;62.67;46.00;24.00
23240;PMS7003;11789;53.482;9.862;2022-11-14T05:00:00;54.67;43.67;26.00
23240;PMS7003;11789;53.482;9.862;2022-11-14T05:02:26;67.33;51.00;29.33
23240;PMS7003;11789;53.482;9.862;2022-11-14T05:04:55;61.67;48.00;26.00
23240;PMS7003;11789;53.482;9.862;2022-11-14T05:07:20;60.67;48.00;27.00
23240;PMS7003;11789;53.482;9.862;2022-11-14T05:09:46;63.00;49.33;28.00
23240;PMS7003;11789;53.482;9.862;2022-11-14T05:12:11;61.33;49.00;27.00
23240;PMS7003;11789;53.482;9.862;2022-11-14T05:14:36;61.00;48.67;26.00
23240;PMS7003;11789;53.482;9.862;2022-11-14T05:17:02;64.33;48.67;28.00
23240;PMS7003;11789;53.482;9.862;2022-11-14T05:19:27;63.33;49.33;29.33
23240;PMS7003;11789;53.482;9.862;2022-11-14T05:21:53;60.00;49.00;28.33
23240;PMS7003;11789;53.482;9.862;2022-11-14T05:24:18;71.33;51.00;26.67
23240;PMS7003;11789;53.482;9.862;2022-11-14T05:26:44;63.00;48.67;29.00
23240;PMS7003;11789;53.482;9.862;2022-11-14T05:29:09;64.00;49.33;29.00
23240;PMS7003;11789;53.482;9.862;2022-11-14T05:31:34;63.67;50.33;29.33
23240;PMS7003;11789;53.482;9.862;2022-11-14T05:34:00;64.00;48.67;26.00
23240;PMS7003;11789;53.482;9.862;2022-11-14T05:36:25;62.67;48.67;28.00
23240;PMS7003;11789;53.482;9.862;2022-11-14T05:38:51;60.33;48.00;26.00
23240;PMS7003;11789;53.482;9.862;2022-11-14T05:41:17;64.00;49.33;28.00
23240;PMS7003;11789;53.482;9.862;2022-11-14T05:43:46;60.67;48.33;28.00
23240;PMS7003;11789;53.482;9.862;2022-11-14T05:46:13;58.67;43.67;22.00
23240;PMS7003;11789;53.482;9.862;2022-11-14T05:48:40;68.67;52.00;28.67
23240;PMS7003;11789;53.482;9.862;2022-11-14T05:51:08;67.33;50.00;29.00
23240;PMS7003;11789;53.482;9.862;2022-11-14T05:53:35;65.00;51.67;30.00
23240;PMS7003;11789;53.482;9.862;2022-11-14T05:56:02;60.33;51.00;28.67
23240;PMS7003;11789;53.482;9.862;2022-11-14T05:58:29;65.33;51.00;29.00
23240;PMS7003;11789;53.482;9.862;2022-11-14T06:01:03;63.00;49.33;27.67
23240;PMS7003;11789;53.482;9.862;2022-11-14T06:03:34;67.00;50.00;28.33
23240;PMS7003;11789;53.482;9.862;2022-11-14T06:06:03;65.00;50.33;27.67
23240;PMS7003;11789;53.482;9.862;2022-11-14T06:08:30;70.67;51.67;27.67
23240;PMS7003;11789;53.482;9.862;2022-11-14T06:11:00;64.00;51.67;28.00
23240;PMS7003;11789;53.482;9.862;2022-11-14T06:13:27;64.67;50.33;28.00
23240;PMS7003;11789;53.482;9.862;2022-11-14T06:15:56;66.67;52.33;28.33
23240;PMS7003;11789;53.482;9.862;2022-11-14T06:18:23;65.00;52.00;29.00
23240;PMS7003;11789;53.482;9.862;2022-11-14T06:20:48;59.00;46.00;26.00
23240;PMS7003;11789;53.482;9.862;2022-11-14T06:23:14;60.33;50.33;27.33
23240;PMS7003;11789;53.482;9.862;2022-11-14T06:25:39;65.00;49.00;28.00
23240;PMS7003;11789;53.482;9.862;2022-11-14T06:28:05;59.67;46.33;27.00
23240;PMS7003;11789;53.482;9.862;2022-11-14T06:30:30;62.00;48.00;29.00
23240;PMS7003;11789;53.482;9.862;2022-11-14T06:32:56;61.67;49.00;27.67
23240;PMS7003;11789;53.482;9.862;2022-11-14T06:35:23;62.33;49.33;29.33
23240;PMS7003;11789;53.482;9.862;2022-11-14T06:37:49;65.00;53.00;29.33
23240;PMS7003;11789;53.482;9.862;2022-11-14T06:40:14;66.00;49.33;29.00
23240;PMS7003;11789;53.482;9.862;2022-11-14T06:42:40;59.00;48.00;29.00
23240;PMS7003;11789;53.482;9.862;2022-11-14T06:45:05;64.33;51.67;28.00
23240;PMS7003;11789;53.482;9.862;2022-11-14T06:47:31;64.00;46.67;28.67
23240;PMS7003;11789;53.482;9.862;2022-11-14T06:49:57;64.00;51.00;28.00
23240;PMS7003;11789;53.482;9.862;2022-11-14T06:52:22;66.67;51.33;29.00
23240;PMS7003;11789;53.482;9.862;2022-11-14T06:54:49;61.00;49.00;29.67
23240;PMS7003;11789;53.482;9.862;2022-11-14T06:57:15;64.33;51.67;27.67
23240;PMS7003;11789;53.482;9.862;2022-11-14T06:59:40;62.67;48.33;28.00
23240;PMS7003;11789;53.482;9.862;2022-11-14T07:02:09;64.00;49.67;27.33
23240;PMS7003;11789;53.482;9.862;2022-11-14T07:04:38;62.00;47.00;27.67
23240;PMS7003;11789;53.482;9.862;2022-11-14T07:07:03;71.33;54.33;31.00
23240;PMS7003;11789;53.482;9.862;2022-11-14T07:09:29;69.33;52.00;27.00
23240;PMS7003;11789;53.482;9.862;2022-11-14T07:11:55;64.00;49.00;29.00
23240;PMS7003;11789;53.482;9.862;2022-11-14T07:14:21;70.00;52.00;31.00
23240;PMS7003;11789;53.482;9.862;2022-11-14T07:16:47;66.67;51.33;29.00
23240;PMS7003;11789;53.482;9.862;2022-11-14T07:19:13;63.00;49.33;28.00
23240;PMS7003;11789;53.482;9.862;2022-11-14T07:21:39;67.33;54.00;30.33
23240;PMS7003;11789;53.482;9.862;2022-11-14T07:24:05;63.33;51.33;29.33
23240;PMS7003;11789;53.482;9.862;2022-11-14T07:26:31;65.00;51.33;28.00
23240;PMS7003;11789;53.482;9.862;2022-11-14T07:28:57;62.33;51.00;29.33
23240;PMS7003;11789;53.482;9.862;2022-11-14T07:31:22;64.00;47.33;27.33
23240;PMS7003;11789;53.482;9.862;2022-11-14T07:33:48;63.67;48.67;28.67
23240;PMS7003;11789;53.482;9.862;2022-11-14T07:36:14;70.00;52.67;27.67
23240;PMS7003;11789;53.482;9.862;2022-11-14T07:38:40;68.33;52.67;29.67
23240;PMS7003;11789;53.482;9.862;2022-11-14T07:41:13;69.33;54.33;29.33
23240;PMS7003;11789;53.482;9.862;2022-11-14T07:43:40;75.67;55.00;31.00
23240;PMS7003;11789;53.482;9.862;2022-11-14T07:46:06;69.33;54.33;29.67
23240;PMS7003;11789;53.482;9.862;2022-11-14T07:48:35;73.33;53.00;30.33
23240;PMS7003;11789;53.482;9.862;2022-11-14T07:51:00;64.33;52.00;31.00
23240;PMS7003;11789;53.482;9.862;2022-11-14T07:53:28;70.33;53.67;31.33
23240;PMS7003;11789;53.482;9.862;2022-11-14T07:55:54;67.00;52.33;28.67
23240;PMS7003;11789;53.482;9.862;2022-11-14T07:58:20;67.00;52.33;29.00
23240;PMS7003;11789;53.482;9.862;2022-11-14T08:00:46;63.33;51.00;30.33
23240;PMS7003;11789;53.482;9.862;2022-11-14T08:03:11;66.33;53.33;30.33
23240;PMS7003;11789;53.482;9.862;2022-11-14T08:05:36;64.67;49.00;28.67
23240;PMS7003;11789;53.482;9.862;2022-11-14T08:08:02;67.33;52.00;29.00
23240;PMS7003;11789;53.482;9.862;2022-11-14T08:10:28;68.00;51.33;29.00
23240;PMS7003;11789;53.482;9.862;2022-11-14T08:12:57;58.67;48.67;29.00
23240;PMS7003;11789;53.482;9.862;2022-11-14T08:15:27;55.00;47.00;26.33
23240;PMS7003;11789;53.482;9.862;2022-11-14T08:17:59;66.00;50.67;27.00
23240;PMS7003;11789;53.482;9.862;2022-11-14T08:20:26;67.00;49.33;27.00
23240;PMS7003;11789;53.482;9.862;2022-11-14T08:22:52;64.00;50.00;29.33
23240;PMS7003;11789;53.482;9.862;2022-11-14T08:25:18;63.33;50.67;27.00
23240;PMS7003;11789;53.482;9.862;2022-11-14T08:27:44;63.33;52.00;26.00
23240;PMS7003;11789;53.482;9.862;2022-11-14T08:30:09;63.33;51.00;29.33
23240;PMS7003;11789;53.482;9.862;2022-11-14T08:32:35;64.00;52.00;28.33
23240;PMS7003;11789;53.482;9.862;2022-11-14T08:35:01;65.33;46.67;25.00
23240;PMS7003;11789;53.482;9.862;2022-11-14T08:37:26;65.67;52.67;29.67
23240;PMS7003;11789;53.482;9.862;2022-11-14T08:39:52;74.67;53.33;27.00
23240;PMS7003;11789;53.482;9.862;2022-11-14T08:42:17;66.33;50.00;27.00
23240;PMS7003;11789;53.482;9.862;2022-11-14T08:44:43;68.67;52.33;29.33
23240;PMS7003;11789;53.482;9.862;2022-11-14T08:47:08;64.00;50.00;28.33
23240;PMS7003;11789;53.482;9.862;2022-11-14T08:49:34;71.00;54.33;29.33
23240;PMS7003;11789;53.482;9.862;2022-11-14T08:51:59;63.33;48.67;26.67
23240;PMS7003;11789;53.482;9.862;2022-11-14T08:54:25;65.67;50.00;29.00
23240;PMS7003;11789;53.482;9.862;2022-11-14T08:56:50;64.00;51.00;28.67
23240;PMS7003;11789;53.482;9.862;2022-11-14T08:59:15;60.33;49.33;28.00
23240;PMS7003;11789;53.482;9.862;2022-11-14T09:01:41;60.00;48.33;27.00
23240;PMS7003;11789;53.482;9.862;2022-11-14T09:04:07;64.00;48.67;27.00
23240;PMS7003;11789;53.482;9.862;2022-11-14T09:06:33;60.67;51.00;26.00
23240;PMS7003;11789;53.482;9.862;2022-11-14T09:08:58;61.33;48.00;25.67
23240;PMS7003;11789;53.482;9.862;2022-11-14T09:11:24;66.33;52.00;28.67
23240;PMS7003;11789;53.482;9.862;2022-11-14T09:13:49;67.33;50.00;27.00
23240;PMS7003;11789;53.482;9.862;2022-11-14T09:16:15;64.00;50.00;28.33
23240;PMS7003;11789;53.482;9.862;2022-11-14T09:18:40;63.67;48.67;27.00
23240;PMS7003;11789;53.482;9.862;2022-11-14T09:21:07;70.33;51.67;29.00
23240;PMS7003;11789;53.482;9.862;2022-11-14T09:23:34;62.33;48.00;27.00
23240;PMS7003;11789;53.482;9.862;2022-11-14T09:26:07;59.67;47.00;26.67
23240;PMS7003;11789;53.482;9.862;2022-11-14T09:28:33;60.00;46.67;25.00
23240;PMS7003;11789;53.482;9.862;2022-11-14T09:31:03;64.67;47.33;27.00
23240;PMS7003;11789;53.482;9.862;2022-11-14T09:33:31;63.00;47.33;27.33
23240;PMS7003;11789;53.482;9.862;2022-11-14T09:36:00;60.67;47.67;27.33
23240;PMS7003;11789;53.482;9.862;2022-11-14T09:38:28;63.00;51.33;28.00
23240;PMS7003;11789;53.482;9.862;2022-11-14T09:41:03;65.67;50.33;26.00
23240;PMS7003;11789;53.482;9.862;2022-11-14T09:47:01;67.00;50.33;29.33
23240;PMS7003;11789;53.482;9.862;2022-11-14T09:49:30;63.67;50.33;27.67
23240;PMS7003;11789;53.482;9.862;2022-11-14T09:54:55;67.67;51.67;28.33
23240;PMS7003;11789;53.482;9.862;2022-11-14T09:57:23;65.00;51.33;29.00
23240;PMS7003;11789;53.482;9.862;2022-11-14T09:59:50;59.67;48.00;26.00
23240;PMS7003;11789;53.482;9.862;2022-11-14T10:05:30;69.33;52.33;30.00
23240;PMS7003;11789;53.482;9.862;2022-11-14T10:08:43;67.67;53.67;29.00
23240;PMS7003;11789;53.482;9.862;2022-11-14T10:11:12;68.00;51.33;29.00
23240;PMS7003;11789;53.482;9.862;2022-11-14T10:19:46;64.00;50.67;30.00
23240;PMS7003;11789;53.482;9.862;2022-11-14T10:24:58;64.00;50.00;28.00
23240;PMS7003;11789;53.482;9.862;2022-11-14T10:27:36;63.67;49.67;29.00
23240;PMS7003;11789;53.482;9.862;2022-11-14T10:30:14;64.67;49.67;29.00
23240;PMS7003;11789;53.482;9.862;2022-11-14T10:35:38;64.00;49.00;28.67
23240;PMS7003;11789;53.482;9.862;2022-11-14T10:40:58;65.67;50.67;28.67
23240;PMS7003;11789;53.482;9.862;2022-11-14T10:43:34;59.00;47.33;29.00
23240;PMS7003;11789;53.482;9.862;2022-11-14T10:48:55;60.33;48.67;28.67
23240;PMS7003;11789;53.482;9.862;2022-11-14T10:56:46;61.00;47.00;27.67
23240;PMS7003;11789;53.482;9.862;2022-11-14T10:59:12;60.67;49.00;26.33
23240;PMS7003;11789;53.482;9.862;2022-11-14T11:04:19;57.33;46.67;26.00
23240;PMS7003;11789;53.482;9.862;2022-11-14T11:06:45;55.00;46.00;25.00
23240;PMS7003;11789;53.482;9.862;2022-11-14T11:09:24;56.67;46.00;29.00
23240;PMS7003;11789;53.482;9.862;2022-11-14T11:12:14;56.00;44.33;25.33
23240;PMS7003;11789;53.482;9.862;2022-11-14T11:14:43;50.67;42.33;26.00
23240;PMS7003;11789;53.482;9.862;2022-11-14T11:19:35;63.67;46.67;25.00
23240;PMS7003;11789;53.482;9.862;2022-11-14T11:22:02;59.00;45.67;26.67
23240;PMS7003;11789;53.482;9.862;2022-11-14T11:24:32;56.00;45.00;28.33
23240;PMS7003;11789;53.482;9.862;2022-11-14T11:29:38;60.67;47.67;26.33
23240;PMS7003;11789;53.482;9.862;2022-11-14T11:32:04;63.67;48.00;28.33
23240;PMS7003;11789;53.482;9.862;2022-11-14T11:34:32;61.00;47.67;25.67
23240;PMS7003;11789;53.482;9.862;2022-11-14T11:39:39;59.67;46.00;28.33
23240;PMS7003;11789;53.482;9.862;2022-11-14T11:42:11;58.33;46.33;28.33
23240;PMS7003;11789;53.482;9.862;2022-11-14T11:44:43;65.33;48.67;27.33
23240;PMS7003;11789;53.482;9.862;2022-11-14T11:47:12;59.67;47.33;29.33
23240;PMS7003;11789;53.482;9.862;2022-11-14T11:49:43;57.33;47.33;26.00
23240;PMS7003;11789;53.482;9.862;2022-11-14T11:57:22;59.67;48.67;27.00
23240;PMS7003;11789;53.482;9.862;2022-11-14T12:00:03;58.33;47.33;28.33
23240;PMS7003;11789;53.482;9.862;2022-11-14T12:02:31;56.00;44.67;26.67
23240;PMS7003;11789;53.482;9.862;2022-11-14T12:04:59;61.67;48.33;28.33
23240;PMS7003;11789;53.482;9.862;2022-11-14T12:07:41;57.67;45.00;27.33
23240;PMS7003;11789;53.482;9.862;2022-11-14T12:10:16;55.00;44.00;25.67
23240;PMS7003;11789;53.482;9.862;2022-11-14T12:35:23;56.33;45.33;28.00
23240;PMS7003;11789;53.482;9.862;2022-11-14T12:37:53;56.25;46.25;27.75
23240;PMS7003;11789;53.482;9.862;2022-11-14T12:40:24;54.75;45.25;25.25
23240;PMS7003;11789;53.482;9.862;2022-11-14T12:42:53;54.00;44.00;26.00
23240;PMS7003;11789;53.482;9.862;2022-11-14T12:50:51;56.33;44.33;26.00
23240;PMS7003;11789;53.482;9.862;2022-11-14T13:01:29;53.00;43.67;25.67
23240;PMS7003;11789;53.482;9.862;2022-11-14T13:04:31;56.67;45.33;27.00
23240;PMS7003;11789;53.482;9.862;2022-11-14T13:07:06;57.33;45.00;28.00
23240;PMS7003;11789;53.482;9.862;2022-11-14T13:12:30;54.33;45.33;26.00
23240;PMS7003;11789;53.482;9.862;2022-11-14T13:18:35;51.00;40.33;21.33
23240;PMS7003;11789;53.482;9.862;2022-11-14T13:21:32;53.67;44.00;25.33
23240;PMS7003;11789;53.482;9.862;2022-11-14T13:24:10;51.67;43.67;26.00
23240;PMS7003;11789;53.482;9.862;2022-11-14T13:26:46;53.00;42.33;25.67
23240;PMS7003;11789;53.482;9.862;2022-11-14T13:32:00;52.75;39.50;25.50
23240;PMS7003;11789;53.482;9.862;2022-11-14T13:37:24;47.50;41.00;26.00
23240;PMS7003;11789;53.482;9.862;2022-11-14T13:51:14;53.67;43.67;26.00
23240;PMS7003;11789;53.482;9.862;2022-11-14T13:53:41;55.00;42.00;25.00
23240;PMS7003;11789;53.482;9.862;2022-11-14T14:10:26;54.50;43.00;25.00
23240;PMS7003;11789;53.482;9.862;2022-11-14T14:23:57;54.00;42.25;26.00
23240;PMS7003;11789;53.482;9.862;2022-11-14T14:27:02;50.67;42.67;26.00
23240;PMS7003;11789;53.482;9.862;2022-11-14T14:29:57;50.67;41.67;24.67
23240;PMS7003;11789;53.482;9.862;2022-11-14T14:32:31;53.75;41.25;25.25
23240;PMS7003;11789;53.482;9.862;2022-11-14T14:34:57;58.67;45.00;27.00
23240;PMS7003;11789;53.482;9.862;2022-11-14T14:37:27;51.67;41.00;25.67
23240;PMS7003;11789;53.482;9.862;2022-11-14T14:42:27;49.67;41.00;24.00
23240;PMS7003;11789;53.482;9.862;2022-11-14T14:44:58;52.33;41.00;24.33
23240;PMS7003;11789;53.482;9.862;2022-11-14T14:47:40;54.00;44.33;26.33
23240;PMS7003;11789;53.482;9.862;2022-11-14T14:52:42;53.00;42.67;25.67
23240;PMS7003;11789;53.482;9.862;2022-11-14T14:55:17;54.75;43.75;25.75
23240;PMS7003;11789;53.482;9.862;2022-11-14T14:57:44;54.00;43.00;26.00
23240;PMS7003;11789;53.482;9.862;2022-11-14T15:00:17;49.00;41.00;24.33
23240;PMS7003;11789;53.482;9.862;2022-11-14T15:02:53;56.00;43.00;25.75
23240;PMS7003;11789;53.482;9.862;2022-11-14T15:05:23;59.33;46.00;28.00
23240;PMS7003;11789;53.482;9.862;2022-11-14T15:07:55;54.33;43.67;27.00
23240;PMS7003;11789;53.482;9.862;2022-11-14T15:10:24;56.00;44.00;26.33
23240;PMS7003;11789;53.482;9.862;2022-11-14T15:12:53;55.00;43.00;26.75
23240;PMS7003;11789;53.482;9.862;2022-11-14T15:15:21;53.00;41.25;24.25
23240;PMS7003;11789;53.482;9.862;2022-11-14T15:17:50;57.75;44.75;26.50
23240;PMS7003;11789;53.482;9.862;2022-11-14T15:20:24;56.67;45.00;28.00
23240;PMS7003;11789;53.482;9.862;2022-11-14T15:23:05;56.00;45.00;27.25
23240;PMS7003;11789;53.482;9.862;2022-11-14T15:25:30;53.67;43.33;26.00
23240;PMS7003;11789;53.482;9.862;2022-11-14T15:27:56;53.00;43.50;26.00
23240;PMS7003;11789;53.482;9.862;2022-11-14T15:30:33;53.50;43.50;25.75
23240;PMS7003;11789;53.482;9.862;2022-11-14T15:33:00;53.75;42.50;25.25
23240;PMS7003;11789;53.482;9.862;2022-11-14T15:35:34;54.75;42.25;26.00
23240;PMS7003;11789;53.482;9.862;2022-11-14T15:38:02;53.33;43.67;26.00
23240;PMS7003;11789;53.482;9.862;2022-11-14T15:40:28;54.67;44.00;26.00
23240;PMS7003;11789;53.482;9.862;2022-11-14T15:42:55;49.67;42.33;25.00
23240;PMS7003;11789;53.482;9.862;2022-11-14T15:47:47;54.33;43.67;26.00
23240;PMS7003;11789;53.482;9.862;2022-11-14T15:50:24;56.00;43.00;26.00
23240;PMS7003;11789;53.482;9.862;2022-11-14T15:52:56;55.00;43.33;28.33
23240;PMS7003;11789;53.482;9.862;2022-11-14T15:55:25;57.33;45.00;25.67
23240;PMS7003;11789;53.482;9.862;2022-11-14T15:57:50;51.67;44.00;26.00
23240;PMS7003;11789;53.482;9.862;2022-11-14T16:00:16;59.67;44.00;26.00
23240;PMS7003;11789;53.482;9.862;2022-11-14T16:02:50;53.33;42.33;27.33
23240;PMS7003;11789;53.482;9.862;2022-11-14T16:05:24;53.33;42.33;28.33
23240;PMS7003;11789;53.482;9.862;2022-11-14T16:07:53;57.33;45.00;25.67
23240;PMS7003;11789;53.482;9.862;2022-11-14T16:10:20;56.33;44.33;26.00
23240;PMS7003;11789;53.482;9.862;2022-11-14T16:12:46;59.00;48.00;28.00
23240;PMS7003;11789;53.482;9.862;2022-11-14T16:15:11;57.67;47.00;26.00